createdAt,value
2018-02-19T05:29:28.698Z,41.90
2018-02-19T05:34:39.191Z,46.90
2018-02-19T05:39:47.692Z,40.50
2018-02-19T05:44:58.548Z,43.40
2018-02-19T05:50:06.054Z,40.80
2018-02-19T05:55:15.596Z,41.30
2018-02-19T06:00:32.548Z,41.80
2018-02-19T06:05:39.801Z,42.50
2018-02-19T06:10:50.621Z,43.80
2018-02-19T06:15:59.740Z,41.60
2018-02-19T06:21:08.456Z,39.80
2018-02-19T06:26:17.035Z,40.70
2018-02-19T06:31:22.064Z,39.70
2018-02-19T06:36:30.590Z,39.00
2018-02-19T06:41:39.340Z,40.80
2018-02-19T06:46:50.300Z,42.40
2018-02-19T06:52:00.412Z,39.00
2018-02-19T06:57:08.537Z,40.80
2018-02-19T07:02:15.399Z,40.60
2018-02-19T07:07:26.249Z,40.00
2018-02-19T07:12:30.991Z,37.30
2018-02-19T07:17:38.353Z,39.80
2018-02-19T07:22:47.204Z,39.10
2018-02-19T07:27:57.434Z,40.20
2018-02-19T07:33:04.734Z,38.00
2018-02-19T07:38:13.955Z,38.10
2018-02-19T07:43:24.246Z,41.00
2018-02-19T07:48:30.237Z,38.40
2018-02-19T07:53:38.779Z,35.10
2018-02-19T07:58:46.102Z,35.90
2018-02-19T08:03:52.109Z,39.10
2018-02-19T08:09:00.878Z,37.30
2018-02-19T08:14:09.137Z,35.00
2018-02-19T08:19:17.382Z,35.90
2018-02-19T11:56:07.574Z,16.30
2018-02-19T12:01:14.758Z,16.70
2018-02-19T12:06:24.759Z,25.20
2018-02-19T12:11:28.821Z,26.60
2018-02-19T12:16:35.619Z,25.20
2018-02-19T12:21:44.299Z,25.20
2018-02-19T12:26:52.276Z,26.50
2018-02-19T12:32:00.956Z,26.60
2018-02-19T12:37:04.846Z,24.90
2018-02-19T12:42:09.659Z,26.10
2018-02-19T12:47:18.332Z,25.60
2018-02-19T12:52:23.906Z,28.50
2018-02-19T12:57:32.994Z,27.10
2018-02-19T13:02:42.436Z,24.40
2018-02-19T13:07:50.965Z,27.50
2018-02-19T13:13:00.666Z,25.20
2018-02-19T13:18:03.373Z,25.40
2018-02-19T13:23:11.989Z,27.50
2018-02-19T13:28:17.071Z,28.00
2018-02-19T13:33:25.061Z,30.00
2018-02-19T13:38:35.334Z,27.10
2018-02-19T13:43:43.657Z,27.30
2018-02-19T13:48:49.315Z,29.40
2018-02-19T13:54:05.008Z,28.40
2018-02-19T13:59:09.604Z,28.40
2018-02-19T14:04:15.700Z,29.00
2018-02-19T14:09:24.263Z,29.40
2018-02-19T14:14:29.700Z,27.60
2018-02-19T14:19:38.731Z,27.40
2018-02-19T14:24:44.607Z,27.20
2018-02-19T14:29:53.648Z,28.60
2018-02-19T14:35:03.324Z,27.50
2018-02-19T14:40:11.841Z,26.50
2018-02-19T14:45:16.986Z,27.50
2018-02-19T14:50:25.856Z,26.80
2018-02-19T14:55:31.308Z,26.00
2018-02-19T15:00:38.690Z,27.80
2018-02-19T15:05:43.357Z,29.40
2018-02-19T15:10:48.330Z,30.50
2018-02-19T15:15:53.183Z,29.50
2018-02-19T15:20:58.123Z,26.20
2018-02-19T15:26:03.281Z,31.40
2018-02-19T15:31:11.825Z,30.60
2018-02-19T15:36:13.285Z,32.60
2018-02-19T15:41:17.517Z,32.30
2018-02-19T15:46:22.917Z,33.50
2018-02-19T15:51:32.174Z,35.40
2018-02-19T15:56:40.798Z,36.00
2018-02-19T16:01:48.643Z,35.20
2018-02-19T16:06:58.971Z,34.50
2018-02-19T16:12:09.189Z,33.20
2018-02-19T16:17:15.124Z,33.30
2018-02-19T16:22:19.783Z,33.00
2018-02-19T16:27:24.602Z,34.30
2018-02-19T16:32:30.102Z,35.40
2018-02-19T16:37:34.056Z,38.40
2018-02-19T16:42:39.487Z,33.10
2018-02-19T16:47:43.948Z,34.70
2018-02-19T16:52:47.480Z,37.00
2018-02-19T16:57:53.220Z,39.90
2018-02-19T17:03:01.986Z,39.10
2018-02-19T17:08:10.371Z,42.30
2018-02-19T17:13:18.923Z,43.10
2018-02-19T17:18:28.491Z,39.60
2018-02-19T17:23:38.507Z,38.70
2018-02-19T17:28:48.932Z,37.10
2018-02-19T17:33:55.982Z,36.80
2018-02-19T17:39:04.648Z,36.90
2018-02-19T17:44:10.101Z,43.00
2018-02-19T17:49:19.199Z,43.00
2018-02-19T17:54:25.269Z,48.70
2018-02-19T17:59:30.308Z,41.50
2018-02-19T18:04:37.944Z,39.10
2018-02-19T18:09:47.897Z,38.30
2018-02-19T18:14:57.750Z,35.60
2018-02-19T18:20:07.170Z,37.90
2018-02-19T18:25:15.221Z,34.50
2018-02-19T18:30:23.646Z,38.50
2018-02-19T18:35:31.669Z,40.90
2018-02-19T18:40:37.004Z,36.40
2018-02-19T18:45:46.461Z,38.90
2018-02-19T18:50:51.430Z,38.40
2018-02-19T18:56:00.944Z,40.30
2018-02-19T19:01:09.964Z,35.20
2018-02-19T19:06:19.017Z,38.90
2018-02-19T19:11:28.634Z,36.60
2018-02-19T19:16:38.504Z,37.40
2018-02-19T19:21:51.720Z,40.90
2018-02-19T19:26:58.178Z,39.10
2018-02-19T19:32:07.653Z,37.60
2018-02-19T19:37:17.624Z,39.60
2018-02-19T19:42:26.917Z,37.90
2018-02-19T19:47:31.829Z,37.10
2018-02-19T19:52:35.517Z,38.00
2018-02-19T19:57:45.290Z,38.80
2018-02-19T20:02:54.795Z,39.80
2018-02-19T20:08:00.671Z,42.00
2018-02-19T20:13:05.988Z,41.50
2018-02-19T20:18:13.716Z,41.00
2018-02-19T20:23:22.966Z,42.40
2018-02-19T20:28:32.363Z,40.90
2018-02-19T20:33:42.388Z,39.50
2018-02-19T20:38:48.583Z,40.00
2018-02-19T20:43:57.327Z,39.40
2018-02-19T20:49:05.905Z,38.50
2018-02-19T20:54:15.130Z,39.00
2018-02-19T20:59:24.653Z,39.50
2018-02-19T21:04:23.884Z,40.70
2018-02-19T21:09:31.293Z,41.20
2018-02-19T21:14:35.943Z,40.70
2018-02-19T21:19:39.462Z,38.50
2018-02-19T21:24:48.079Z,39.70
2018-02-19T21:29:58.161Z,39.50
2018-02-19T21:35:03.099Z,39.60
2018-02-19T21:40:12.186Z,40.60
2018-02-19T21:45:18.344Z,39.80
2018-02-19T21:50:27.768Z,39.40
2018-02-19T22:00:45.632Z,42.90
2018-02-19T22:05:55.540Z,39.50
2018-02-19T22:11:05.765Z,41.60
2018-02-19T22:16:15.088Z,41.10
2018-02-19T22:21:24.342Z,41.10
2018-02-19T22:26:34.246Z,42.90
2018-02-19T22:31:42.992Z,41.10
2018-02-19T22:36:53.855Z,41.00
2018-02-19T22:42:04.194Z,41.40
2018-02-19T22:47:13.602Z,42.60
2018-02-19T22:52:22.431Z,42.40
2018-02-19T22:57:31.589Z,41.20
2018-02-19T23:02:40.736Z,42.40
2018-02-19T23:07:46.365Z,41.80
2018-02-19T23:12:55.496Z,44.00
2018-02-19T23:18:03.627Z,45.50
2018-02-19T23:23:13.076Z,44.50
2018-02-19T23:28:23.275Z,41.40
2018-02-19T23:33:31.818Z,41.20
2018-02-19T23:38:40.268Z,41.80
2018-02-19T23:43:51.022Z,42.90
2018-02-19T23:48:57.288Z,43.00
2018-02-19T23:54:03.483Z,40.90
2018-02-19T23:59:12.042Z,41.70
